sensor_id;sensor_type;location;lat;lon;timestamp;P1;durP1;ratioP1;P2;durP2;ratioP2
74939;SDS011;63505;45.226;37.908;2023-02-28T00:00:31;12.75;;;6.60;;
74939;SDS011;63505;45.226;37.908;2023-02-28T00:02:57;12.68;;;6.43;;
74939;SDS011;63505;45.226;37.908;2023-02-28T00:05:23;11.05;;;6.15;;
74939;SDS011;63505;45.226;37.908;2023-02-28T00:07:51;11.52;;;5.53;;
74939;SDS011;63505;45.226;37.908;2023-02-28T00:10:18;13.25;;;6.20;;
74939;SDS011;63505;45.226;37.908;2023-02-28T00:12:48;14.95;;;6.20;;
74939;SDS011;63505;45.226;37.908;2023-02-28T00:15:14;13.60;;;6.43;;
74939;SDS011;63505;45.226;37.908;2023-02-28T00:17:41;12.23;;;5.47;;
74939;SDS011;63505;45.226;37.908;2023-02-28T00:20:08;12.10;;;6.28;;
74939;SDS011;63505;45.226;37.908;2023-02-28T00:22:36;12.23;;;4.85;;
74939;SDS011;63505;45.226;37.908;2023-02-28T00:25:02;9.45;;;4.85;;
74939;SDS011;63505;45.226;37.908;2023-02-28T00:27:29;11.10;;;5.45;;
74939;SDS011;63505;45.226;37.908;2023-02-28T00:29:55;15.20;;;5.10;;
74939;SDS011;63505;45.226;37.908;2023-02-28T00:32:21;9.18;;;4.65;;
74939;SDS011;63505;45.226;37.908;2023-02-28T00:34:47;11.50;;;5.47;;
74939;SDS011;63505;45.226;37.908;2023-02-28T00:37:13;21.33;;;5.93;;
74939;SDS011;63505;45.226;37.908;2023-02-28T00:39:39;9.13;;;5.30;;
74939;SDS011;63505;45.226;37.908;2023-02-28T00:42:06;10.80;;;4.70;;
74939;SDS011;63505;45.226;37.908;2023-02-28T00:44:33;12.05;;;5.15;;
74939;SDS011;63505;45.226;37.908;2023-02-28T00:46:59;14.20;;;5.28;;
74939;SDS011;63505;45.226;37.908;2023-02-28T00:49:26;11.20;;;5.97;;
74939;SDS011;63505;45.226;37.908;2023-02-28T00:51:53;12.13;;;6.03;;
74939;SDS011;63505;45.226;37.908;2023-02-28T00:54:20;11.45;;;5.68;;
74939;SDS011;63505;45.226;37.908;2023-02-28T00:56:46;10.15;;;5.82;;
74939;SDS011;63505;45.226;37.908;2023-02-28T00:59:13;10.60;;;4.70;;
74939;SDS011;63505;45.226;37.908;2023-02-28T01:01:40;11.65;;;4.75;;
74939;SDS011;63505;45.226;37.908;2023-02-28T01:04:06;26.83;;;13.02;;
74939;SDS011;63505;45.226;37.908;2023-02-28T01:06:34;10.98;;;6.20;;
74939;SDS011;63505;45.226;37.908;2023-02-28T01:09:01;8.20;;;4.88;;
74939;SDS011;63505;45.226;37.908;2023-02-28T01:11:29;14.07;;;5.72;;
74939;SDS011;63505;45.226;37.908;2023-02-28T01:13:55;10.02;;;4.30;;
74939;SDS011;63505;45.226;37.908;2023-02-28T01:16:21;9.98;;;4.38;;
74939;SDS011;63505;45.226;37.908;2023-02-28T01:18:47;11.55;;;4.50;;
74939;SDS011;63505;45.226;37.908;2023-02-28T01:21:14;10.88;;;5.13;;
74939;SDS011;63505;45.226;37.908;2023-02-28T01:23:43;11.18;;;4.45;;
74939;SDS011;63505;45.226;37.908;2023-02-28T01:26:10;8.57;;;5.55;;
74939;SDS011;63505;45.226;37.908;2023-02-28T01:28:38;12.82;;;5.28;;
74939;SDS011;63505;45.226;37.908;2023-02-28T01:31:05;10.55;;;5.18;;
74939;SDS011;63505;45.226;37.908;2023-02-28T01:33:31;10.35;;;5.38;;
74939;SDS011;63505;45.226;37.908;2023-02-28T01:35:59;11.35;;;5.90;;
74939;SDS011;63505;45.226;37.908;2023-02-28T01:38:26;10.32;;;6.00;;
74939;SDS011;63505;45.226;37.908;2023-02-28T01:40:53;9.68;;;4.93;;
74939;SDS011;63505;45.226;37.908;2023-02-28T01:43:21;9.95;;;5.88;;
74939;SDS011;63505;45.226;37.908;2023-02-28T01:45:50;10.18;;;5.28;;
74939;SDS011;63505;45.226;37.908;2023-02-28T01:48:16;8.43;;;4.72;;
74939;SDS011;63505;45.226;37.908;2023-02-28T01:50:45;9.57;;;5.47;;
74939;SDS011;63505;45.226;37.908;2023-02-28T01:53:14;9.70;;;6.07;;
74939;SDS011;63505;45.226;37.908;2023-02-28T01:55:45;10.52;;;5.50;;
74939;SDS011;63505;45.226;37.908;2023-02-28T01:58:14;11.32;;;5.15;;
74939;SDS011;63505;45.226;37.908;2023-02-28T02:00:41;8.82;;;5.63;;
74939;SDS011;63505;45.226;37.908;2023-02-28T02:03:10;10.13;;;5.15;;
74939;SDS011;63505;45.226;37.908;2023-02-28T02:05:41;11.82;;;5.68;;
74939;SDS011;63505;45.226;37.908;2023-02-28T02:08:15;9.98;;;4.07;;
74939;SDS011;63505;45.226;37.908;2023-02-28T02:11:05;11.80;;;5.40;;
74939;SDS011;63505;45.226;37.908;2023-02-28T02:16:02;9.95;;;4.85;;
74939;SDS011;63505;45.226;37.908;2023-02-28T02:27:47;10.38;;;4.30;;
74939;SDS011;63505;45.226;37.908;2023-02-28T02:38:49;9.35;;;4.60;;
74939;SDS011;63505;45.226;37.908;2023-02-28T02:44:00;9.73;;;4.35;;
74939;SDS011;63505;45.226;37.908;2023-02-28T02:46:34;13.57;;;5.13;;
74939;SDS011;63505;45.226;37.908;2023-02-28T02:49:05;8.60;;;3.88;;
74939;SDS011;63505;45.226;37.908;2023-02-28T02:51:34;12.25;;;4.95;;
74939;SDS011;63505;45.226;37.908;2023-02-28T02:54:37;12.88;;;5.45;;
74939;SDS011;63505;45.226;37.908;2023-02-28T02:56:58;19.63;;;11.32;;
74939;SDS011;63505;45.226;37.908;2023-02-28T02:59:27;30.92;;;16.65;;
74939;SDS011;63505;45.226;37.908;2023-02-28T03:01:56;30.85;;;19.35;;
74939;SDS011;63505;45.226;37.908;2023-02-28T03:04:26;28.75;;;18.30;;
74939;SDS011;63505;45.226;37.908;2023-02-28T03:06:57;31.92;;;18.63;;
74939;SDS011;63505;45.226;37.908;2023-02-28T03:09:24;26.50;;;14.90;;
74939;SDS011;63505;45.226;37.908;2023-02-28T03:11:52;22.92;;;10.25;;
74939;SDS011;63505;45.226;37.908;2023-02-28T03:23:16;7.32;;;4.18;;
74939;SDS011;63505;45.226;37.908;2023-02-28T03:33:39;12.93;;;5.85;;
74939;SDS011;63505;45.226;37.908;2023-02-28T03:36:11;10.98;;;5.40;;
74939;SDS011;63505;45.226;37.908;2023-02-28T03:41:22;14.43;;;5.93;;
74939;SDS011;63505;45.226;37.908;2023-02-28T03:43:55;11.38;;;5.43;;
74939;SDS011;63505;45.226;37.908;2023-02-28T03:46:26;9.43;;;5.75;;
74939;SDS011;63505;45.226;37.908;2023-02-28T03:51:27;12.95;;;5.97;;
74939;SDS011;63505;45.226;37.908;2023-02-28T03:53:59;10.55;;;6.80;;
74939;SDS011;63505;45.226;37.908;2023-02-28T03:57:07;13.02;;;6.18;;
74939;SDS011;63505;45.226;37.908;2023-02-28T03:59:33;16.17;;;5.93;;
74939;SDS011;63505;45.226;37.908;2023-02-28T04:02:04;10.70;;;6.47;;
74939;SDS011;63505;45.226;37.908;2023-02-28T04:04:30;13.73;;;6.15;;
74939;SDS011;63505;45.226;37.908;2023-02-28T04:07:08;15.25;;;7.07;;
74939;SDS011;63505;45.226;37.908;2023-02-28T04:09:36;16.30;;;6.57;;
74939;SDS011;63505;45.226;37.908;2023-02-28T04:12:03;15.25;;;6.80;;
74939;SDS011;63505;45.226;37.908;2023-02-28T04:14:29;13.32;;;7.15;;
74939;SDS011;63505;45.226;37.908;2023-02-28T04:16:55;15.95;;;7.88;;
74939;SDS011;63505;45.226;37.908;2023-02-28T04:19:21;14.38;;;7.35;;
74939;SDS011;63505;45.226;37.908;2023-02-28T04:21:47;12.93;;;7.20;;
74939;SDS011;63505;45.226;37.908;2023-02-28T04:24:21;18.35;;;9.25;;
74939;SDS011;63505;45.226;37.908;2023-02-28T04:26:50;17.63;;;10.07;;
74939;SDS011;63505;45.226;37.908;2023-02-28T04:29:24;17.38;;;9.20;;
74939;SDS011;63505;45.226;37.908;2023-02-28T04:31:55;24.20;;;12.73;;
74939;SDS011;63505;45.226;37.908;2023-02-28T04:34:25;20.98;;;10.77;;
74939;SDS011;63505;45.226;37.908;2023-02-28T04:36:52;21.10;;;10.30;;
74939;SDS011;63505;45.226;37.908;2023-02-28T04:41:47;17.65;;;9.15;;
74939;SDS011;63505;45.226;37.908;2023-02-28T04:44:13;21.75;;;9.13;;
74939;SDS011;63505;45.226;37.908;2023-02-28T04:46:40;13.02;;;7.90;;
74939;SDS011;63505;45.226;37.908;2023-02-28T04:49:06;16.65;;;9.07;;
74939;SDS011;63505;45.226;37.908;2023-02-28T04:51:33;18.42;;;9.60;;
74939;SDS011;63505;45.226;37.908;2023-02-28T04:53:59;22.08;;;10.27;;
74939;SDS011;63505;45.226;37.908;2023-02-28T04:56:25;23.65;;;12.55;;
74939;SDS011;63505;45.226;37.908;2023-02-28T04:58:50;18.27;;;9.02;;
74939;SDS011;63505;45.226;37.908;2023-02-28T05:01:25;17.80;;;7.45;;
74939;SDS011;63505;45.226;37.908;2023-02-28T05:03:56;16.70;;;6.95;;
74939;SDS011;63505;45.226;37.908;2023-02-28T05:06:25;15.63;;;6.57;;
74939;SDS011;63505;45.226;37.908;2023-02-28T05:08:52;16.73;;;6.72;;
74939;SDS011;63505;45.226;37.908;2023-02-28T05:11:20;9.98;;;6.05;;
74939;SDS011;63505;45.226;37.908;2023-02-28T05:13:51;18.00;;;6.13;;
74939;SDS011;63505;45.226;37.908;2023-02-28T05:16:19;12.20;;;6.85;;
74939;SDS011;63505;45.226;37.908;2023-02-28T05:18:45;13.00;;;5.60;;
74939;SDS011;63505;45.226;37.908;2023-02-28T05:24:15;14.13;;;6.38;;
74939;SDS011;63505;45.226;37.908;2023-02-28T05:26:48;14.85;;;6.57;;
74939;SDS011;63505;45.226;37.908;2023-02-28T05:29:16;18.95;;;9.40;;
74939;SDS011;63505;45.226;37.908;2023-02-28T05:31:42;21.55;;;11.30;;
74939;SDS011;63505;45.226;37.908;2023-02-28T05:34:07;21.52;;;10.85;;
74939;SDS011;63505;45.226;37.908;2023-02-28T05:36:36;23.25;;;11.98;;
74939;SDS011;63505;45.226;37.908;2023-02-28T05:39:02;14.80;;;6.20;;
74939;SDS011;63505;45.226;37.908;2023-02-28T05:41:28;18.23;;;7.85;;
74939;SDS011;63505;45.226;37.908;2023-02-28T05:43:54;18.55;;;7.05;;
74939;SDS011;63505;45.226;37.908;2023-02-28T05:46:21;18.48;;;8.45;;
74939;SDS011;63505;45.226;37.908;2023-02-28T05:48:47;14.07;;;8.57;;
74939;SDS011;63505;45.226;37.908;2023-02-28T05:51:13;16.63;;;8.20;;
74939;SDS011;63505;45.226;37.908;2023-02-28T05:53:39;19.88;;;8.80;;
74939;SDS011;63505;45.226;37.908;2023-02-28T05:56:05;20.55;;;9.27;;
74939;SDS011;63505;45.226;37.908;2023-02-28T05:58:31;15.25;;;7.25;;
74939;SDS011;63505;45.226;37.908;2023-02-28T06:01:01;16.95;;;7.93;;
74939;SDS011;63505;45.226;37.908;2023-02-28T06:04:01;17.98;;;8.55;;
74939;SDS011;63505;45.226;37.908;2023-02-28T06:06:29;17.33;;;7.93;;
74939;SDS011;63505;45.226;37.908;2023-02-28T06:08:55;7.60;;;5.38;;
74939;SDS011;63505;45.226;37.908;2023-02-28T06:11:21;14.25;;;8.00;;
74939;SDS011;63505;45.226;37.908;2023-02-28T06:13:55;15.35;;;7.93;;
74939;SDS011;63505;45.226;37.908;2023-02-28T06:16:23;15.20;;;9.00;;
74939;SDS011;63505;45.226;37.908;2023-02-28T06:18:49;18.60;;;9.15;;
74939;SDS011;63505;45.226;37.908;2023-02-28T06:21:16;11.80;;;6.28;;
74939;SDS011;63505;45.226;37.908;2023-02-28T06:23:41;11.75;;;6.18;;
74939;SDS011;63505;45.226;37.908;2023-02-28T06:26:07;17.45;;;8.82;;
74939;SDS011;63505;45.226;37.908;2023-02-28T06:28:33;13.45;;;8.13;;
74939;SDS011;63505;45.226;37.908;2023-02-28T06:30:59;13.63;;;6.75;;
74939;SDS011;63505;45.226;37.908;2023-02-28T06:33:25;15.48;;;6.90;;
74939;SDS011;63505;45.226;37.908;2023-02-28T06:35:51;19.75;;;9.73;;
74939;SDS011;63505;45.226;37.908;2023-02-28T06:38:18;15.95;;;7.47;;
74939;SDS011;63505;45.226;37.908;2023-02-28T06:40:44;12.45;;;6.22;;
74939;SDS011;63505;45.226;37.908;2023-02-28T06:43:10;16.50;;;8.20;;
74939;SDS011;63505;45.226;37.908;2023-02-28T06:45:43;11.38;;;7.38;;
74939;SDS011;63505;45.226;37.908;2023-02-28T06:48:09;19.45;;;8.30;;
74939;SDS011;63505;45.226;37.908;2023-02-28T06:50:35;16.92;;;8.32;;
74939;SDS011;63505;45.226;37.908;2023-02-28T06:53:02;13.32;;;6.95;;
74939;SDS011;63505;45.226;37.908;2023-02-28T06:55:28;10.50;;;5.55;;
74939;SDS011;63505;45.226;37.908;2023-02-28T06:57:53;11.23;;;5.75;;
74939;SDS011;63505;45.226;37.908;2023-02-28T07:00:20;16.63;;;7.78;;
74939;SDS011;63505;45.226;37.908;2023-02-28T07:02:46;15.63;;;7.47;;
74939;SDS011;63505;45.226;37.908;2023-02-28T07:05:12;13.00;;;6.15;;
74939;SDS011;63505;45.226;37.908;2023-02-28T07:07:39;12.82;;;6.35;;
74939;SDS011;63505;45.226;37.908;2023-02-28T07:10:09;15.93;;;8.07;;
74939;SDS011;63505;45.226;37.908;2023-02-28T07:12:36;15.32;;;7.22;;
74939;SDS011;63505;45.226;37.908;2023-02-28T07:15:03;16.65;;;9.93;;
74939;SDS011;63505;45.226;37.908;2023-02-28T07:17:30;15.48;;;9.15;;
74939;SDS011;63505;45.226;37.908;2023-02-28T07:19:56;20.98;;;10.35;;
74939;SDS011;63505;45.226;37.908;2023-02-28T07:22:22;12.73;;;6.88;;
74939;SDS011;63505;45.226;37.908;2023-02-28T07:24:48;36.63;;;17.02;;
74939;SDS011;63505;45.226;37.908;2023-02-28T07:27:14;14.55;;;8.27;;
74939;SDS011;63505;45.226;37.908;2023-02-28T07:29:49;16.83;;;9.55;;
74939;SDS011;63505;45.226;37.908;2023-02-28T07:32:15;12.57;;;6.90;;
74939;SDS011;63505;45.226;37.908;2023-02-28T07:34:41;18.48;;;8.50;;
74939;SDS011;63505;45.226;37.908;2023-02-28T07:37:07;14.40;;;9.55;;
74939;SDS011;63505;45.226;37.908;2023-02-28T07:39:33;14.85;;;7.97;;
74939;SDS011;63505;45.226;37.908;2023-02-28T07:41:59;16.83;;;7.82;;
74939;SDS011;63505;45.226;37.908;2023-02-28T07:44:25;16.88;;;7.50;;
74939;SDS011;63505;45.226;37.908;2023-02-28T07:46:51;13.27;;;7.68;;
74939;SDS011;63505;45.226;37.908;2023-02-28T07:49:18;11.52;;;5.78;;
74939;SDS011;63505;45.226;37.908;2023-02-28T07:51:44;16.92;;;7.93;;
74939;SDS011;63505;45.226;37.908;2023-02-28T07:54:10;11.95;;;6.80;;
74939;SDS011;63505;45.226;37.908;2023-02-28T07:56:35;10.98;;;6.60;;
74939;SDS011;63505;45.226;37.908;2023-02-28T07:59:01;9.25;;;6.53;;
74939;SDS011;63505;45.226;37.908;2023-02-28T08:01:27;15.93;;;8.77;;
74939;SDS011;63505;45.226;37.908;2023-02-28T08:03:53;10.68;;;5.82;;
74939;SDS011;63505;45.226;37.908;2023-02-28T08:06:22;13.25;;;8.65;;
74939;SDS011;63505;45.226;37.908;2023-02-28T08:08:49;13.18;;;7.75;;
74939;SDS011;63505;45.226;37.908;2023-02-28T08:11:15;18.05;;;10.93;;
74939;SDS011;63505;45.226;37.908;2023-02-28T08:13:43;19.98;;;10.35;;
74939;SDS011;63505;45.226;37.908;2023-02-28T08:16:10;18.52;;;9.50;;
74939;SDS011;63505;45.226;37.908;2023-02-28T08:18:37;11.32;;;7.38;;
74939;SDS011;63505;45.226;37.908;2023-02-28T08:21:09;14.07;;;6.78;;
74939;SDS011;63505;45.226;37.908;2023-02-28T08:23:35;15.63;;;8.57;;
74939;SDS011;63505;45.226;37.908;2023-02-28T08:26:02;15.98;;;7.85;;
74939;SDS011;63505;45.226;37.908;2023-02-28T08:28:29;10.55;;;6.13;;
74939;SDS011;63505;45.226;37.908;2023-02-28T08:30:55;13.45;;;7.80;;
74939;SDS011;63505;45.226;37.908;2023-02-28T08:33:21;12.63;;;6.57;;
74939;SDS011;63505;45.226;37.908;2023-02-28T08:35:48;13.43;;;8.13;;
74939;SDS011;63505;45.226;37.908;2023-02-28T08:38:13;20.52;;;8.60;;
74939;SDS011;63505;45.226;37.908;2023-02-28T08:40:39;12.98;;;6.07;;
74939;SDS011;63505;45.226;37.908;2023-02-28T08:43:05;14.95;;;9.07;;
74939;SDS011;63505;45.226;37.908;2023-02-28T08:45:31;14.70;;;8.43;;
74939;SDS011;63505;45.226;37.908;2023-02-28T08:47:57;13.65;;;6.97;;
74939;SDS011;63505;45.226;37.908;2023-02-28T08:50:23;16.63;;;8.73;;
74939;SDS011;63505;45.226;37.908;2023-02-28T08:52:49;13.82;;;7.60;;
74939;SDS011;63505;45.226;37.908;2023-02-28T08:55:15;12.02;;;5.97;;
74939;SDS011;63505;45.226;37.908;2023-02-28T08:57:41;13.68;;;7.88;;
74939;SDS011;63505;45.226;37.908;2023-02-28T09:00:07;12.77;;;7.72;;
74939;SDS011;63505;45.226;37.908;2023-02-28T09:02:33;16.73;;;8.60;;
74939;SDS011;63505;45.226;37.908;2023-02-28T09:04:59;15.15;;;9.02;;
74939;SDS011;63505;45.226;37.908;2023-02-28T09:07:25;14.13;;;7.95;;
74939;SDS011;63505;45.226;37.908;2023-02-28T09:09:51;15.88;;;7.90;;
74939;SDS011;63505;45.226;37.908;2023-02-28T09:12:31;15.10;;;7.53;;
74939;SDS011;63505;45.226;37.908;2023-02-28T09:14:58;16.10;;;8.32;;
74939;SDS011;63505;45.226;37.908;2023-02-28T09:17:24;15.65;;;9.02;;
74939;SDS011;63505;45.226;37.908;2023-02-28T09:19:50;10.25;;;5.15;;
74939;SDS011;63505;45.226;37.908;2023-02-28T09:22:16;10.32;;;6.13;;
74939;SDS011;63505;45.226;37.908;2023-02-28T09:24:42;15.20;;;7.60;;
74939;SDS011;63505;45.226;37.908;2023-02-28T09:27:10;15.45;;;7.63;;
74939;SDS011;63505;45.226;37.908;2023-02-28T09:29:36;17.92;;;9.55;;
74939;SDS011;63505;45.226;37.908;2023-02-28T09:32:02;17.42;;;10.05;;
74939;SDS011;63505;45.226;37.908;2023-02-28T09:34:31;11.80;;;6.97;;
74939;SDS011;63505;45.226;37.908;2023-02-28T09:36:57;22.30;;;9.02;;
74939;SDS011;63505;45.226;37.908;2023-02-28T09:39:23;19.75;;;10.00;;
74939;SDS011;63505;45.226;37.908;2023-02-28T09:41:52;13.85;;;7.35;;
74939;SDS011;63505;45.226;37.908;2023-02-28T09:44:33;15.43;;;5.50;;
74939;SDS011;63505;45.226;37.908;2023-02-28T09:49:52;16.73;;;6.70;;
74939;SDS011;63505;45.226;37.908;2023-02-28T09:52:19;9.93;;;6.00;;
74939;SDS011;63505;45.226;37.908;2023-02-28T09:54:48;13.02;;;6.82;;
74939;SDS011;63505;45.226;37.908;2023-02-28T10:00:05;10.63;;;5.95;;
74939;SDS011;63505;45.226;37.908;2023-02-28T10:10:40;9.95;;;6.03;;
74939;SDS011;63505;45.226;37.908;2023-02-28T10:15:54;9.35;;;6.47;;
74939;SDS011;63505;45.226;37.908;2023-02-28T10:18:25;22.65;;;12.60;;
74939;SDS011;63505;45.226;37.908;2023-02-28T10:20:56;21.10;;;11.05;;
74939;SDS011;63505;45.226;37.908;2023-02-28T10:23:26;13.65;;;7.40;;
74939;SDS011;63505;45.226;37.908;2023-02-28T10:26:09;22.77;;;10.70;;
74939;SDS011;63505;45.226;37.908;2023-02-28T10:28:38;18.45;;;9.38;;
74939;SDS011;63505;45.226;37.908;2023-02-28T10:31:05;27.65;;;11.70;;
74939;SDS011;63505;45.226;37.908;2023-02-28T10:33:36;21.95;;;10.60;;
74939;SDS011;63505;45.226;37.908;2023-02-28T10:36:03;21.00;;;9.80;;
74939;SDS011;63505;45.226;37.908;2023-02-28T10:38:35;27.95;;;10.38;;
74939;SDS011;63505;45.226;37.908;2023-02-28T10:41:07;30.88;;;12.07;;
74939;SDS011;63505;45.226;37.908;2023-02-28T10:43:38;18.95;;;8.93;;
74939;SDS011;63505;45.226;37.908;2023-02-28T10:51:03;29.02;;;11.35;;
74939;SDS011;63505;45.226;37.908;2023-02-28T10:53:35;25.45;;;10.10;;
74939;SDS011;63505;45.226;37.908;2023-02-28T10:56:20;35.50;;;13.45;;
74939;SDS011;63505;45.226;37.908;2023-02-28T11:01:46;21.85;;;9.90;;
74939;SDS011;63505;45.226;37.908;2023-02-28T11:07:05;20.13;;;8.70;;
74939;SDS011;63505;45.226;37.908;2023-02-28T11:09:53;18.80;;;9.07;;
74939;SDS011;63505;45.226;37.908;2023-02-28T11:15:05;21.40;;;8.85;;
74939;SDS011;63505;45.226;37.908;2023-02-28T11:17:57;15.55;;;7.30;;
74939;SDS011;63505;45.226;37.908;2023-02-28T11:20:42;20.92;;;10.38;;
74939;SDS011;63505;45.226;37.908;2023-02-28T11:23:15;17.17;;;7.50;;
74939;SDS011;63505;45.226;37.908;2023-02-28T11:25:46;21.95;;;7.65;;
74939;SDS011;63505;45.226;37.908;2023-02-28T11:28:31;26.92;;;12.40;;
74939;SDS011;63505;45.226;37.908;2023-02-28T11:33:41;14.68;;;8.02;;
74939;SDS011;63505;45.226;37.908;2023-02-28T11:36:18;20.80;;;8.23;;
74939;SDS011;63505;45.226;37.908;2023-02-28T11:38:59;23.95;;;10.68;;
74939;SDS011;63505;45.226;37.908;2023-02-28T11:41:35;30.35;;;12.88;;
74939;SDS011;63505;45.226;37.908;2023-02-28T11:44:18;20.10;;;9.27;;
74939;SDS011;63505;45.226;37.908;2023-02-28T11:49:59;22.92;;;10.77;;
74939;SDS011;63505;45.226;37.908;2023-02-28T12:03:39;34.83;;;13.85;;
74939;SDS011;63505;45.226;37.908;2023-02-28T12:10:21;17.88;;;8.43;;
74939;SDS011;63505;45.226;37.908;2023-02-28T12:17:41;27.02;;;13.48;;
74939;SDS011;63505;45.226;37.908;2023-02-28T12:20:24;22.10;;;11.75;;
74939;SDS011;63505;45.226;37.908;2023-02-28T12:26:02;26.55;;;10.85;;
74939;SDS011;63505;45.226;37.908;2023-02-28T12:29:19;15.02;;;7.30;;
74939;SDS011;63505;45.226;37.908;2023-02-28T12:31:53;16.48;;;7.85;;
74939;SDS011;63505;45.226;37.908;2023-02-28T12:34:26;18.00;;;8.45;;
74939;SDS011;63505;45.226;37.908;2023-02-28T12:36:58;23.33;;;11.00;;
74939;SDS011;63505;45.226;37.908;2023-02-28T12:39:30;38.70;;;18.95;;
74939;SDS011;63505;45.226;37.908;2023-02-28T12:42:04;38.72;;;16.80;;
74939;SDS011;63505;45.226;37.908;2023-02-28T12:44:37;47.47;;;20.23;;
74939;SDS011;63505;45.226;37.908;2023-02-28T12:47:06;45.88;;;21.52;;
74939;SDS011;63505;45.226;37.908;2023-02-28T12:49:39;46.70;;;20.10;;
74939;SDS011;63505;45.226;37.908;2023-02-28T12:52:11;35.72;;;16.73;;
74939;SDS011;63505;45.226;37.908;2023-02-28T13:00:04;33.60;;;13.38;;
74939;SDS011;63505;45.226;37.908;2023-02-28T13:08:43;24.98;;;9.65;;
74939;SDS011;63505;45.226;37.908;2023-02-28T13:14:27;34.67;;;14.63;;
74939;SDS011;63505;45.226;37.908;2023-02-28T13:19:31;25.38;;;12.32;;
74939;SDS011;63505;45.226;37.908;2023-02-28T13:22:00;23.48;;;12.30;;
74939;SDS011;63505;45.226;37.908;2023-02-28T13:29:31;23.98;;;8.40;;
74939;SDS011;63505;45.226;37.908;2023-02-28T13:39:48;17.42;;;7.97;;
74939;SDS011;63505;45.226;37.908;2023-02-28T13:47:41;14.48;;;6.75;;
74939;SDS011;63505;45.226;37.908;2023-02-28T13:50:24;16.55;;;6.90;;
74939;SDS011;63505;45.226;37.908;2023-02-28T13:55:25;14.95;;;6.47;;
74939;SDS011;63505;45.226;37.908;2023-02-28T13:58:09;17.33;;;8.23;;
74939;SDS011;63505;45.226;37.908;2023-02-28T14:06:07;20.63;;;7.95;;
74939;SDS011;63505;45.226;37.908;2023-02-28T14:11:36;14.98;;;5.70;;
74939;SDS011;63505;45.226;37.908;2023-02-28T14:14:05;8.25;;;4.10;;
74939;SDS011;63505;45.226;37.908;2023-02-28T14:16:36;13.82;;;6.60;;
74939;SDS011;63505;45.226;37.908;2023-02-28T14:19:17;11.40;;;5.65;;
74939;SDS011;63505;45.226;37.908;2023-02-28T14:24:34;5.25;;;2.58;;
74939;SDS011;63505;45.226;37.908;2023-02-28T14:32:25;7.30;;;4.00;;
74939;SDS011;63505;45.226;37.908;2023-02-28T14:35:16;5.18;;;3.00;;
74939;SDS011;63505;45.226;37.908;2023-02-28T14:38:05;4.78;;;2.42;;
74939;SDS011;63505;45.226;37.908;2023-02-28T14:40:37;8.93;;;5.53;;
74939;SDS011;63505;45.226;37.908;2023-02-28T14:43:04;8.70;;;3.75;;
74939;SDS011;63505;45.226;37.908;2023-02-28T14:45:32;8.88;;;4.25;;
74939;SDS011;63505;45.226;37.908;2023-02-28T14:48:01;6.15;;;4.05;;
74939;SDS011;63505;45.226;37.908;2023-02-28T14:50:31;8.40;;;3.22;;
74939;SDS011;63505;45.226;37.908;2023-02-28T14:52:59;8.05;;;4.10;;
74939;SDS011;63505;45.226;37.908;2023-02-28T14:55:34;7.82;;;3.30;;
74939;SDS011;63505;45.226;37.908;2023-02-28T14:58:02;12.48;;;5.20;;
74939;SDS011;63505;45.226;37.908;2023-02-28T15:00:32;6.30;;;2.70;;
74939;SDS011;63505;45.226;37.908;2023-02-28T15:03:17;14.85;;;6.00;;
74939;SDS011;63505;45.226;37.908;2023-02-28T15:06:12;4.22;;;2.33;;
74939;SDS011;63505;45.226;37.908;2023-02-28T15:08:40;8.43;;;3.42;;
74939;SDS011;63505;45.226;37.908;2023-02-28T15:11:27;8.82;;;3.45;;
74939;SDS011;63505;45.226;37.908;2023-02-28T15:13:52;9.95;;;4.60;;
74939;SDS011;63505;45.226;37.908;2023-02-28T15:16:24;7.13;;;3.90;;
74939;SDS011;63505;45.226;37.908;2023-02-28T15:19:00;11.98;;;4.32;;
74939;SDS011;63505;45.226;37.908;2023-02-28T15:21:33;9.93;;;4.30;;
74939;SDS011;63505;45.226;37.908;2023-02-28T15:24:05;11.60;;;4.30;;
74939;SDS011;63505;45.226;37.908;2023-02-28T15:26:39;10.30;;;4.15;;
74939;SDS011;63505;45.226;37.908;2023-02-28T15:29:15;15.15;;;5.35;;
74939;SDS011;63505;45.226;37.908;2023-02-28T15:31:55;14.43;;;5.75;;
74939;SDS011;63505;45.226;37.908;2023-02-28T15:39:52;12.18;;;6.45;;
74939;SDS011;63505;45.226;37.908;2023-02-28T15:42:19;12.15;;;4.50;;
74939;SDS011;63505;45.226;37.908;2023-02-28T15:44:47;13.07;;;5.82;;
74939;SDS011;63505;45.226;37.908;2023-02-28T15:49:49;13.35;;;5.93;;
74939;SDS011;63505;45.226;37.908;2023-02-28T15:52:42;19.55;;;8.10;;
74939;SDS011;63505;45.226;37.908;2023-02-28T15:55:12;18.30;;;8.40;;
74939;SDS011;63505;45.226;37.908;2023-02-28T15:57:43;18.52;;;8.15;;
74939;SDS011;63505;45.226;37.908;2023-02-28T16:00:12;18.13;;;7.68;;
74939;SDS011;63505;45.226;37.908;2023-02-28T16:02:40;21.13;;;6.43;;
74939;SDS011;63505;45.226;37.908;2023-02-28T16:07:36;19.08;;;8.00;;
74939;SDS011;63505;45.226;37.908;2023-02-28T16:10:04;22.08;;;8.57;;
74939;SDS011;63505;45.226;37.908;2023-02-28T16:12:33;16.33;;;6.00;;
74939;SDS011;63505;45.226;37.908;2023-02-28T16:15:02;12.93;;;6.50;;
74939;SDS011;63505;45.226;37.908;2023-02-28T16:17:35;14.45;;;6.03;;
74939;SDS011;63505;45.226;37.908;2023-02-28T16:20:20;12.40;;;5.57;;
74939;SDS011;63505;45.226;37.908;2023-02-28T16:22:49;15.85;;;5.68;;
74939;SDS011;63505;45.226;37.908;2023-02-28T16:25:17;15.02;;;5.75;;
74939;SDS011;63505;45.226;37.908;2023-02-28T16:27:47;15.10;;;5.90;;
74939;SDS011;63505;45.226;37.908;2023-02-28T16:30:24;11.82;;;4.90;;
74939;SDS011;63505;45.226;37.908;2023-02-28T16:32:54;14.70;;;6.20;;
74939;SDS011;63505;45.226;37.908;2023-02-28T16:35:21;24.13;;;7.40;;
74939;SDS011;63505;45.226;37.908;2023-02-28T16:37:47;15.40;;;6.60;;
74939;SDS011;63505;45.226;37.908;2023-02-28T16:40:16;15.23;;;6.18;;
74939;SDS011;63505;45.226;37.908;2023-02-28T16:42:46;67.82;;;28.02;;
74939;SDS011;63505;45.226;37.908;2023-02-28T16:45:16;15.15;;;7.75;;
74939;SDS011;63505;45.226;37.908;2023-02-28T16:47:44;16.20;;;6.07;;
74939;SDS011;63505;45.226;37.908;2023-02-28T16:50:19;15.60;;;6.85;;
74939;SDS011;63505;45.226;37.908;2023-02-28T16:52:47;12.32;;;5.40;;
74939;SDS011;63505;45.226;37.908;2023-02-28T16:55:15;17.75;;;5.30;;
74939;SDS011;63505;45.226;37.908;2023-02-28T16:57:41;14.68;;;6.20;;
74939;SDS011;63505;45.226;37.908;2023-02-28T17:00:08;13.77;;;5.40;;
74939;SDS011;63505;45.226;37.908;2023-02-28T17:02:38;13.65;;;6.65;;
74939;SDS011;63505;45.226;37.908;2023-02-28T17:05:04;8.30;;;4.50;;
74939;SDS011;63505;45.226;37.908;2023-02-28T17:07:31;15.32;;;6.00;;
74939;SDS011;63505;45.226;37.908;2023-02-28T17:09:58;13.05;;;6.35;;
74939;SDS011;63505;45.226;37.908;2023-02-28T17:12:25;11.80;;;5.25;;
74939;SDS011;63505;45.226;37.908;2023-02-28T17:14:52;14.13;;;5.93;;
74939;SDS011;63505;45.226;37.908;2023-02-28T17:17:19;10.43;;;5.03;;
74939;SDS011;63505;45.226;37.908;2023-02-28T17:19:47;8.63;;;4.25;;
74939;SDS011;63505;45.226;37.908;2023-02-28T17:22:13;14.63;;;6.22;;
74939;SDS011;63505;45.226;37.908;2023-02-28T17:24:40;13.60;;;5.70;;
74939;SDS011;63505;45.226;37.908;2023-02-28T17:27:06;16.55;;;5.88;;
74939;SDS011;63505;45.226;37.908;2023-02-28T17:29:36;12.38;;;5.43;;